sensor_id;sensor_type;location;lat;lon;timestamp;P1;durP1;ratioP1;P2;durP2;ratioP2
21758;SDS011;11041;50.854;20.580;2023-06-24T00:00:46;51.05;;;42.08;;
21758;SDS011;11041;50.854;20.580;2023-06-24T00:03:32;47.78;;;41.50;;
21758;SDS011;11041;50.854;20.580;2023-06-24T00:06:03;47.20;;;41.08;;
21758;SDS011;11041;50.854;20.580;2023-06-24T00:08:30;50.83;;;40.35;;
21758;SDS011;11041;50.854;20.580;2023-06-24T00:11:00;51.20;;;41.33;;
21758;SDS011;11041;50.854;20.580;2023-06-24T00:13:28;47.70;;;41.53;;
21758;SDS011;11041;50.854;20.580;2023-06-24T00:15:55;47.95;;;40.42;;
21758;SDS011;11041;50.854;20.580;2023-06-24T00:18:21;47.17;;;40.83;;
21758;SDS011;11041;50.854;20.580;2023-06-24T00:20:50;49.85;;;40.17;;
21758;SDS011;11041;50.854;20.580;2023-06-24T00:23:17;47.05;;;40.80;;
21758;SDS011;11041;50.854;20.580;2023-06-24T00:25:52;46.20;;;41.22;;
21758;SDS011;11041;50.854;20.580;2023-06-24T00:28:20;51.40;;;44.53;;
21758;SDS011;11041;50.854;20.580;2023-06-24T00:30:48;55.08;;;45.15;;
21758;SDS011;11041;50.854;20.580;2023-06-24T00:33:15;53.15;;;45.35;;
21758;SDS011;11041;50.854;20.580;2023-06-24T00:35:48;52.17;;;45.30;;
21758;SDS011;11041;50.854;20.580;2023-06-24T00:38:14;54.33;;;44.80;;
21758;SDS011;11041;50.854;20.580;2023-06-24T00:40:41;56.30;;;42.33;;
21758;SDS011;11041;50.854;20.580;2023-06-24T00:43:08;48.80;;;42.30;;
21758;SDS011;11041;50.854;20.580;2023-06-24T00:45:36;50.42;;;41.97;;
21758;SDS011;11041;50.854;20.580;2023-06-24T00:48:04;54.55;;;42.90;;
21758;SDS011;11041;50.854;20.580;2023-06-24T00:50:31;49.40;;;41.25;;
21758;SDS011;11041;50.854;20.580;2023-06-24T00:52:58;45.30;;;39.72;;
21758;SDS011;11041;50.854;20.580;2023-06-24T00:55:24;50.33;;;42.15;;
21758;SDS011;11041;50.854;20.580;2023-06-24T00:57:55;52.08;;;43.20;;
21758;SDS011;11041;50.854;20.580;2023-06-24T01:00:23;55.70;;;45.53;;
21758;SDS011;11041;50.854;20.580;2023-06-24T01:02:50;58.38;;;47.55;;
21758;SDS011;11041;50.854;20.580;2023-06-24T01:05:17;57.10;;;44.58;;
21758;SDS011;11041;50.854;20.580;2023-06-24T01:07:48;54.38;;;44.17;;
21758;SDS011;11041;50.854;20.580;2023-06-24T01:10:21;50.22;;;42.58;;
21758;SDS011;11041;50.854;20.580;2023-06-24T01:12:50;60.25;;;44.95;;
21758;SDS011;11041;50.854;20.580;2023-06-24T01:15:17;59.08;;;45.42;;
21758;SDS011;11041;50.854;20.580;2023-06-24T01:26:59;49.85;;;39.25;;
21758;SDS011;11041;50.854;20.580;2023-06-24T01:29:38;45.15;;;36.70;;
21758;SDS011;11041;50.854;20.580;2023-06-24T01:32:16;44.75;;;36.78;;
21758;SDS011;11041;50.854;20.580;2023-06-24T01:35:16;45.92;;;35.45;;
21758;SDS011;11041;50.854;20.580;2023-06-24T01:37:51;47.78;;;36.00;;
21758;SDS011;11041;50.854;20.580;2023-06-24T01:40:31;44.63;;;35.65;;
21758;SDS011;11041;50.854;20.580;2023-06-24T01:43:10;41.28;;;32.70;;
21758;SDS011;11041;50.854;20.580;2023-06-24T01:45:50;40.97;;;33.05;;
21758;SDS011;11041;50.854;20.580;2023-06-24T01:48:24;44.42;;;33.22;;
21758;SDS011;11041;50.854;20.580;2023-06-24T01:51:07;41.28;;;32.25;;
21758;SDS011;11041;50.854;20.580;2023-06-24T01:53:39;38.28;;;30.63;;
21758;SDS011;11041;50.854;20.580;2023-06-24T01:56:33;40.30;;;30.42;;
21758;SDS011;11041;50.854;20.580;2023-06-24T01:59:05;39.35;;;31.10;;
21758;SDS011;11041;50.854;20.580;2023-06-24T02:01:35;45.17;;;31.45;;
21758;SDS011;11041;50.854;20.580;2023-06-24T02:04:06;41.83;;;33.20;;
21758;SDS011;11041;50.854;20.580;2023-06-24T02:06:35;36.47;;;30.92;;
21758;SDS011;11041;50.854;20.580;2023-06-24T02:09:05;44.42;;;30.05;;
21758;SDS011;11041;50.854;20.580;2023-06-24T02:11:33;34.03;;;28.58;;
21758;SDS011;11041;50.854;20.580;2023-06-24T02:14:03;38.17;;;28.90;;
21758;SDS011;11041;50.854;20.580;2023-06-24T02:16:33;32.88;;;27.63;;
21758;SDS011;11041;50.854;20.580;2023-06-24T02:19:02;38.75;;;28.55;;
21758;SDS011;11041;50.854;20.580;2023-06-24T02:21:32;31.70;;;28.00;;
21758;SDS011;11041;50.854;20.580;2023-06-24T02:24:02;29.45;;;25.63;;
21758;SDS011;11041;50.854;20.580;2023-06-24T02:26:30;38.05;;;26.45;;
21758;SDS011;11041;50.854;20.580;2023-06-24T02:28:56;31.05;;;26.48;;
21758;SDS011;11041;50.854;20.580;2023-06-24T02:31:23;31.15;;;25.95;;
21758;SDS011;11041;50.854;20.580;2023-06-24T02:33:50;37.30;;;28.17;;
21758;SDS011;11041;50.854;20.580;2023-06-24T02:36:17;30.83;;;26.65;;
21758;SDS011;11041;50.854;20.580;2023-06-24T02:38:43;33.17;;;26.80;;
21758;SDS011;11041;50.854;20.580;2023-06-24T02:41:09;37.70;;;27.63;;
21758;SDS011;11041;50.854;20.580;2023-06-24T02:43:36;33.17;;;26.85;;
21758;SDS011;11041;50.854;20.580;2023-06-24T02:46:03;30.58;;;25.23;;
21758;SDS011;11041;50.854;20.580;2023-06-24T02:48:31;33.67;;;26.08;;
21758;SDS011;11041;50.854;20.580;2023-06-24T02:51:02;34.05;;;27.08;;
21758;SDS011;11041;50.854;20.580;2023-06-24T02:53:31;37.30;;;25.13;;
21758;SDS011;11041;50.854;20.580;2023-06-24T02:55:58;36.40;;;26.65;;
21758;SDS011;11041;50.854;20.580;2023-06-24T02:58:26;33.80;;;25.50;;
21758;SDS011;11041;50.854;20.580;2023-06-24T03:00:58;34.42;;;24.92;;
21758;SDS011;11041;50.854;20.580;2023-06-24T03:03:30;32.03;;;25.67;;
21758;SDS011;11041;50.854;20.580;2023-06-24T03:05:58;28.30;;;24.67;;
21758;SDS011;11041;50.854;20.580;2023-06-24T03:08:28;29.90;;;24.45;;
21758;SDS011;11041;50.854;20.580;2023-06-24T03:10:55;26.55;;;23.05;;
21758;SDS011;11041;50.854;20.580;2023-06-24T03:13:23;25.63;;;22.60;;
21758;SDS011;11041;50.854;20.580;2023-06-24T03:15:50;27.70;;;21.40;;
21758;SDS011;11041;50.854;20.580;2023-06-24T03:18:17;28.00;;;20.00;;
21758;SDS011;11041;50.854;20.580;2023-06-24T03:20:45;24.73;;;20.77;;
21758;SDS011;11041;50.854;20.580;2023-06-24T03:23:12;24.13;;;18.80;;
21758;SDS011;11041;50.854;20.580;2023-06-24T03:25:39;24.02;;;19.48;;
21758;SDS011;11041;50.854;20.580;2023-06-24T03:28:06;19.52;;;15.90;;
21758;SDS011;11041;50.854;20.580;2023-06-24T03:30:34;19.08;;;16.65;;
21758;SDS011;11041;50.854;20.580;2023-06-24T03:33:01;20.08;;;16.27;;
21758;SDS011;11041;50.854;20.580;2023-06-24T03:35:28;17.55;;;15.25;;
21758;SDS011;11041;50.854;20.580;2023-06-24T03:37:57;23.55;;;15.60;;
21758;SDS011;11041;50.854;20.580;2023-06-24T03:40:24;22.90;;;15.18;;
21758;SDS011;11041;50.854;20.580;2023-06-24T03:42:51;21.95;;;15.18;;
21758;SDS011;11041;50.854;20.580;2023-06-24T03:45:20;20.45;;;14.30;;
21758;SDS011;11041;50.854;20.580;2023-06-24T03:47:51;16.88;;;13.95;;
21758;SDS011;11041;50.854;20.580;2023-06-24T03:50:17;18.05;;;13.07;;
21758;SDS011;11041;50.854;20.580;2023-06-24T03:52:44;15.50;;;13.30;;
21758;SDS011;11041;50.854;20.580;2023-06-24T03:55:10;13.10;;;11.43;;
21758;SDS011;11041;50.854;20.580;2023-06-24T03:57:37;15.80;;;12.35;;
21758;SDS011;11041;50.854;20.580;2023-06-24T04:00:03;12.00;;;10.70;;
21758;SDS011;11041;50.854;20.580;2023-06-24T04:02:39;14.07;;;11.15;;
21758;SDS011;11041;50.854;20.580;2023-06-24T04:05:07;14.73;;;10.48;;
21758;SDS011;11041;50.854;20.580;2023-06-24T04:07:35;14.05;;;10.07;;
21758;SDS011;11041;50.854;20.580;2023-06-24T04:10:02;15.38;;;9.50;;
21758;SDS011;11041;50.854;20.580;2023-06-24T04:12:37;12.50;;;9.25;;
21758;SDS011;11041;50.854;20.580;2023-06-24T04:15:03;11.75;;;9.50;;
21758;SDS011;11041;50.854;20.580;2023-06-24T04:17:30;14.82;;;9.50;;
21758;SDS011;11041;50.854;20.580;2023-06-24T04:19:57;13.25;;;10.10;;
21758;SDS011;11041;50.854;20.580;2023-06-24T04:22:24;13.80;;;9.75;;
21758;SDS011;11041;50.854;20.580;2023-06-24T04:24:51;13.95;;;10.52;;
21758;SDS011;11041;50.854;20.580;2023-06-24T04:27:18;11.43;;;9.80;;
21758;SDS011;11041;50.854;20.580;2023-06-24T04:29:44;14.82;;;10.63;;
21758;SDS011;11041;50.854;20.580;2023-06-24T04:32:11;12.40;;;9.90;;
21758;SDS011;11041;50.854;20.580;2023-06-24T04:34:38;11.55;;;9.82;;
21758;SDS011;11041;50.854;20.580;2023-06-24T04:37:08;10.80;;;9.70;;
21758;SDS011;11041;50.854;20.580;2023-06-24T04:39:36;11.20;;;10.00;;
21758;SDS011;11041;50.854;20.580;2023-06-24T04:42:02;13.48;;;10.15;;
21758;SDS011;11041;50.854;20.580;2023-06-24T04:44:29;11.00;;;9.32;;
21758;SDS011;11041;50.854;20.580;2023-06-24T04:46:56;10.85;;;9.70;;
21758;SDS011;11041;50.854;20.580;2023-06-24T04:49:22;12.73;;;8.90;;
21758;SDS011;11041;50.854;20.580;2023-06-24T04:51:49;9.68;;;7.90;;
21758;SDS011;11041;50.854;20.580;2023-06-24T04:54:15;8.52;;;7.28;;
21758;SDS011;11041;50.854;20.580;2023-06-24T04:56:42;9.13;;;7.80;;
21758;SDS011;11041;50.854;20.580;2023-06-24T04:59:10;8.13;;;6.97;;
21758;SDS011;11041;50.854;20.580;2023-06-24T05:01:37;10.73;;;7.60;;
21758;SDS011;11041;50.854;20.580;2023-06-24T05:04:03;10.00;;;7.18;;
21758;SDS011;11041;50.854;20.580;2023-06-24T05:06:30;9.25;;;7.95;;
21758;SDS011;11041;50.854;20.580;2023-06-24T05:08:56;10.68;;;7.03;;
21758;SDS011;11041;50.854;20.580;2023-06-24T05:11:23;8.68;;;6.97;;
21758;SDS011;11041;50.854;20.580;2023-06-24T05:13:50;12.32;;;7.47;;
21758;SDS011;11041;50.854;20.580;2023-06-24T05:16:16;10.10;;;7.47;;
21758;SDS011;11041;50.854;20.580;2023-06-24T05:18:44;10.55;;;6.88;;
21758;SDS011;11041;50.854;20.580;2023-06-24T05:21:11;23.88;;;7.35;;
21758;SDS011;11041;50.854;20.580;2023-06-24T05:23:38;9.07;;;7.05;;
21758;SDS011;11041;50.854;20.580;2023-06-24T05:26:04;7.80;;;7.05;;
21758;SDS011;11041;50.854;20.580;2023-06-24T05:28:31;11.48;;;7.40;;
21758;SDS011;11041;50.854;20.580;2023-06-24T05:30:57;10.32;;;7.82;;
21758;SDS011;11041;50.854;20.580;2023-06-24T05:33:24;11.52;;;7.53;;
21758;SDS011;11041;50.854;20.580;2023-06-24T05:35:51;8.60;;;7.25;;
21758;SDS011;11041;50.854;20.580;2023-06-24T05:38:17;12.65;;;8.05;;
21758;SDS011;11041;50.854;20.580;2023-06-24T05:40:44;9.18;;;7.35;;
21758;SDS011;11041;50.854;20.580;2023-06-24T05:43:10;8.52;;;7.32;;
21758;SDS011;11041;50.854;20.580;2023-06-24T05:45:37;11.48;;;7.97;;
21758;SDS011;11041;50.854;20.580;2023-06-24T05:48:04;8.60;;;7.78;;
21758;SDS011;11041;50.854;20.580;2023-06-24T05:50:31;12.82;;;8.15;;
21758;SDS011;11041;50.854;20.580;2023-06-24T05:52:57;8.82;;;7.15;;
21758;SDS011;11041;50.854;20.580;2023-06-24T05:55:24;11.43;;;6.85;;
21758;SDS011;11041;50.854;20.580;2023-06-24T05:57:50;7.85;;;6.88;;
21758;SDS011;11041;50.854;20.580;2023-06-24T06:00:17;8.57;;;6.88;;
21758;SDS011;11041;50.854;20.580;2023-06-24T06:02:44;8.73;;;6.30;;
21758;SDS011;11041;50.854;20.580;2023-06-24T06:05:11;10.60;;;7.47;;
21758;SDS011;11041;50.854;20.580;2023-06-24T06:07:38;7.95;;;6.35;;
21758;SDS011;11041;50.854;20.580;2023-06-24T06:10:05;9.90;;;7.07;;
21758;SDS011;11041;50.854;20.580;2023-06-24T06:12:33;10.10;;;6.88;;
21758;SDS011;11041;50.854;20.580;2023-06-24T06:14:59;8.27;;;7.07;;
21758;SDS011;11041;50.854;20.580;2023-06-24T06:17:26;9.43;;;6.57;;
21758;SDS011;11041;50.854;20.580;2023-06-24T06:19:52;7.18;;;6.43;;
21758;SDS011;11041;50.854;20.580;2023-06-24T06:22:19;9.05;;;7.50;;
21758;SDS011;11041;50.854;20.580;2023-06-24T06:24:45;9.07;;;6.53;;
21758;SDS011;11041;50.854;20.580;2023-06-24T06:27:12;8.90;;;6.60;;
21758;SDS011;11041;50.854;20.580;2023-06-24T06:29:40;8.57;;;6.15;;
21758;SDS011;11041;50.854;20.580;2023-06-24T06:32:06;9.32;;;6.47;;
21758;SDS011;11041;50.854;20.580;2023-06-24T06:34:34;7.35;;;6.45;;
21758;SDS011;11041;50.854;20.580;2023-06-24T06:37:00;7.95;;;6.90;;
21758;SDS011;11041;50.854;20.580;2023-06-24T06:39:27;7.13;;;6.13;;
21758;SDS011;11041;50.854;20.580;2023-06-24T06:41:54;9.63;;;6.85;;
21758;SDS011;11041;50.854;20.580;2023-06-24T06:44:20;7.97;;;6.30;;
21758;SDS011;11041;50.854;20.580;2023-06-24T06:46:46;8.25;;;6.20;;
21758;SDS011;11041;50.854;20.580;2023-06-24T06:49:13;7.85;;;6.60;;
21758;SDS011;11041;50.854;20.580;2023-06-24T06:51:39;7.47;;;6.00;;
21758;SDS011;11041;50.854;20.580;2023-06-24T06:54:06;10.60;;;5.78;;
21758;SDS011;11041;50.854;20.580;2023-06-24T06:56:32;6.43;;;5.82;;
21758;SDS011;11041;50.854;20.580;2023-06-24T06:58:59;8.02;;;7.13;;
21758;SDS011;11041;50.854;20.580;2023-06-24T07:01:25;7.35;;;6.28;;
21758;SDS011;11041;50.854;20.580;2023-06-24T07:03:52;8.68;;;6.75;;
21758;SDS011;11041;50.854;20.580;2023-06-24T07:06:18;7.25;;;6.60;;
21758;SDS011;11041;50.854;20.580;2023-06-24T07:08:45;7.07;;;6.13;;
21758;SDS011;11041;50.854;20.580;2023-06-24T07:11:12;7.05;;;6.35;;
21758;SDS011;11041;50.854;20.580;2023-06-24T07:13:39;7.38;;;6.68;;
21758;SDS011;11041;50.854;20.580;2023-06-24T07:16:05;8.75;;;6.57;;
21758;SDS011;11041;50.854;20.580;2023-06-24T07:18:31;13.63;;;8.48;;
21758;SDS011;11041;50.854;20.580;2023-06-24T07:20:59;9.82;;;6.32;;
21758;SDS011;11041;50.854;20.580;2023-06-24T07:23:27;7.22;;;5.95;;
21758;SDS011;11041;50.854;20.580;2023-06-24T07:25:54;8.45;;;6.97;;
21758;SDS011;11041;50.854;20.580;2023-06-24T07:28:21;7.63;;;6.28;;
21758;SDS011;11041;50.854;20.580;2023-06-24T07:30:47;9.10;;;6.43;;
21758;SDS011;11041;50.854;20.580;2023-06-24T07:33:14;7.15;;;6.45;;
21758;SDS011;11041;50.854;20.580;2023-06-24T07:35:40;6.95;;;6.30;;
21758;SDS011;11041;50.854;20.580;2023-06-24T07:38:07;7.60;;;6.32;;
21758;SDS011;11041;50.854;20.580;2023-06-24T07:40:34;8.32;;;6.32;;
21758;SDS011;11041;50.854;20.580;2023-06-24T07:43:00;7.38;;;6.63;;
21758;SDS011;11041;50.854;20.580;2023-06-24T07:45:27;10.07;;;6.40;;
21758;SDS011;11041;50.854;20.580;2023-06-24T07:47:53;8.93;;;6.20;;
21758;SDS011;11041;50.854;20.580;2023-06-24T07:50:20;6.85;;;6.18;;
21758;SDS011;11041;50.854;20.580;2023-06-24T07:52:46;7.78;;;6.53;;
21758;SDS011;11041;50.854;20.580;2023-06-24T07:55:13;8.05;;;6.13;;
21758;SDS011;11041;50.854;20.580;2023-06-24T07:57:39;8.15;;;6.25;;
21758;SDS011;11041;50.854;20.580;2023-06-24T08:00:11;7.50;;;6.60;;
21758;SDS011;11041;50.854;20.580;2023-06-24T08:02:40;6.80;;;6.10;;
21758;SDS011;11041;50.854;20.580;2023-06-24T08:05:08;8.98;;;6.35;;
21758;SDS011;11041;50.854;20.580;2023-06-24T08:07:35;9.60;;;6.68;;
21758;SDS011;11041;50.854;20.580;2023-06-24T08:10:03;8.23;;;5.70;;
21758;SDS011;11041;50.854;20.580;2023-06-24T08:12:31;9.25;;;6.18;;
21758;SDS011;11041;50.854;20.580;2023-06-24T08:14:57;10.27;;;5.72;;
21758;SDS011;11041;50.854;20.580;2023-06-24T08:17:24;7.00;;;5.93;;
21758;SDS011;11041;50.854;20.580;2023-06-24T08:19:50;7.97;;;6.03;;
21758;SDS011;11041;50.854;20.580;2023-06-24T08:22:17;6.55;;;5.78;;
21758;SDS011;11041;50.854;20.580;2023-06-24T08:24:43;9.90;;;6.35;;
21758;SDS011;11041;50.854;20.580;2023-06-24T08:27:10;7.72;;;5.78;;
21758;SDS011;11041;50.854;20.580;2023-06-24T08:29:36;8.20;;;5.65;;
21758;SDS011;11041;50.854;20.580;2023-06-24T08:32:03;9.43;;;5.88;;
21758;SDS011;11041;50.854;20.580;2023-06-24T08:34:32;7.25;;;5.53;;
21758;SDS011;11041;50.854;20.580;2023-06-24T08:37:00;6.30;;;5.70;;
21758;SDS011;11041;50.854;20.580;2023-06-24T08:39:26;8.20;;;5.70;;
21758;SDS011;11041;50.854;20.580;2023-06-24T08:41:53;9.50;;;6.15;;
21758;SDS011;11041;50.854;20.580;2023-06-24T08:44:20;6.90;;;5.28;;
21758;SDS011;11041;50.854;20.580;2023-06-24T08:46:47;8.38;;;5.63;;
21758;SDS011;11041;50.854;20.580;2023-06-24T08:49:17;6.90;;;5.97;;
21758;SDS011;11041;50.854;20.580;2023-06-24T08:51:51;7.30;;;6.20;;
21758;SDS011;11041;50.854;20.580;2023-06-24T08:54:26;6.53;;;5.15;;
21758;SDS011;11041;50.854;20.580;2023-06-24T08:56:54;10.77;;;6.15;;
21758;SDS011;11041;50.854;20.580;2023-06-24T08:59:21;6.65;;;5.90;;
21758;SDS011;11041;50.854;20.580;2023-06-24T09:01:48;6.80;;;5.50;;
21758;SDS011;11041;50.854;20.580;2023-06-24T09:04:15;9.88;;;6.10;;
21758;SDS011;11041;50.854;20.580;2023-06-24T09:06:42;6.85;;;5.55;;
21758;SDS011;11041;50.854;20.580;2023-06-24T09:09:28;8.52;;;6.10;;
21758;SDS011;11041;50.854;20.580;2023-06-24T09:11:55;6.50;;;5.90;;
21758;SDS011;11041;50.854;20.580;2023-06-24T09:14:25;9.85;;;6.25;;
21758;SDS011;11041;50.854;20.580;2023-06-24T09:16:55;7.38;;;5.45;;
21758;SDS011;11041;50.854;20.580;2023-06-24T09:19:24;8.60;;;6.07;;
21758;SDS011;11041;50.854;20.580;2023-06-24T09:21:55;9.50;;;5.72;;
21758;SDS011;11041;50.854;20.580;2023-06-24T09:24:27;8.48;;;6.05;;
21758;SDS011;11041;50.854;20.580;2023-06-24T09:26:56;5.93;;;5.25;;
21758;SDS011;11041;50.854;20.580;2023-06-24T09:29:26;6.82;;;5.65;;
21758;SDS011;11041;50.854;20.580;2023-06-24T09:31:54;8.15;;;5.80;;
21758;SDS011;11041;50.854;20.580;2023-06-24T09:34:22;9.10;;;5.95;;
21758;SDS011;11041;50.854;20.580;2023-06-24T09:36:52;6.65;;;5.22;;
21758;SDS011;11041;50.854;20.580;2023-06-24T09:39:21;6.70;;;5.63;;
21758;SDS011;11041;50.854;20.580;2023-06-24T09:42:01;6.00;;;5.40;;
21758;SDS011;11041;50.854;20.580;2023-06-24T09:44:29;9.20;;;6.30;;
21758;SDS011;11041;50.854;20.580;2023-06-24T09:46:56;10.55;;;5.93;;
21758;SDS011;11041;50.854;20.580;2023-06-24T09:49:23;8.05;;;5.65;;
21758;SDS011;11041;50.854;20.580;2023-06-24T09:51:54;6.38;;;5.25;;
21758;SDS011;11041;50.854;20.580;2023-06-24T09:54:24;6.50;;;4.82;;
21758;SDS011;11041;50.854;20.580;2023-06-24T09:56:54;7.10;;;5.15;;
21758;SDS011;11041;50.854;20.580;2023-06-24T09:59:26;6.43;;;5.40;;
21758;SDS011;11041;50.854;20.580;2023-06-24T10:01:56;5.68;;;5.10;;
21758;SDS011;11041;50.854;20.580;2023-06-24T10:04:24;5.72;;;5.10;;
21758;SDS011;11041;50.854;20.580;2023-06-24T10:06:53;7.82;;;6.50;;
21758;SDS011;11041;50.854;20.580;2023-06-24T10:09:21;7.07;;;5.78;;
21758;SDS011;11041;50.854;20.580;2023-06-24T10:11:48;8.35;;;6.30;;
21758;SDS011;11041;50.854;20.580;2023-06-24T10:14:14;8.68;;;6.07;;
21758;SDS011;11041;50.854;20.580;2023-06-24T10:16:42;9.20;;;6.45;;
21758;SDS011;11041;50.854;20.580;2023-06-24T10:19:10;7.40;;;6.40;;
21758;SDS011;11041;50.854;20.580;2023-06-24T10:21:52;9.02;;;6.15;;
21758;SDS011;11041;50.854;20.580;2023-06-24T10:24:35;12.35;;;7.10;;
21758;SDS011;11041;50.854;20.580;2023-06-24T10:27:08;7.03;;;6.13;;
21758;SDS011;11041;50.854;20.580;2023-06-24T10:29:46;6.97;;;6.28;;
21758;SDS011;11041;50.854;20.580;2023-06-24T10:32:19;9.65;;;7.00;;
21758;SDS011;11041;50.854;20.580;2023-06-24T10:34:55;7.93;;;7.13;;
21758;SDS011;11041;50.854;20.580;2023-06-24T10:37:23;12.60;;;7.20;;
21758;SDS011;11041;50.854;20.580;2023-06-24T10:39:53;8.32;;;6.82;;
21758;SDS011;11041;50.854;20.580;2023-06-24T10:42:27;7.65;;;6.50;;
21758;SDS011;11041;50.854;20.580;2023-06-24T10:45:19;8.48;;;6.70;;
21758;SDS011;11041;50.854;20.580;2023-06-24T10:47:49;15.13;;;7.72;;
21758;SDS011;11041;50.854;20.580;2023-06-24T10:50:25;11.65;;;7.07;;
21758;SDS011;11041;50.854;20.580;2023-06-24T10:52:52;9.43;;;7.43;;
21758;SDS011;11041;50.854;20.580;2023-06-24T10:55:21;8.32;;;7.53;;
21758;SDS011;11041;50.854;20.580;2023-06-24T10:57:54;9.13;;;6.88;;
21758;SDS011;11041;50.854;20.580;2023-06-24T11:00:33;8.88;;;7.13;;
21758;SDS011;11041;50.854;20.580;2023-06-24T11:03:13;11.43;;;7.85;;
21758;SDS011;11041;50.854;20.580;2023-06-24T11:05:43;11.00;;;8.40;;
21758;SDS011;11041;50.854;20.580;2023-06-24T11:08:11;12.90;;;7.68;;
21758;SDS011;11041;50.854;20.580;2023-06-24T11:10:41;8.13;;;7.20;;
21758;SDS011;11041;50.854;20.580;2023-06-24T11:13:13;9.43;;;7.95;;
21758;SDS011;11041;50.854;20.580;2023-06-24T11:15:40;10.57;;;7.90;;
21758;SDS011;11041;50.854;20.580;2023-06-24T11:18:09;9.50;;;7.93;;
21758;SDS011;11041;50.854;20.580;2023-06-24T11:20:39;9.57;;;8.65;;
21758;SDS011;11041;50.854;20.580;2023-06-24T11:23:06;10.27;;;9.10;;
21758;SDS011;11041;50.854;20.580;2023-06-24T11:25:38;13.43;;;9.70;;
21758;SDS011;11041;50.854;20.580;2023-06-24T11:28:16;8.82;;;7.20;;
21758;SDS011;11041;50.854;20.580;2023-06-24T11:30:44;12.43;;;8.88;;
21758;SDS011;11041;50.854;20.580;2023-06-24T11:33:11;12.57;;;11.27;;
21758;SDS011;11041;50.854;20.580;2023-06-24T11:35:37;11.02;;;9.80;;
21758;SDS011;11041;50.854;20.580;2023-06-24T11:38:04;12.82;;;11.57;;
21758;SDS011;11041;50.854;20.580;2023-06-24T11:40:31;9.02;;;8.00;;
21758;SDS011;11041;50.854;20.580;2023-06-24T11:43:00;7.80;;;6.70;;
21758;SDS011;11041;50.854;20.580;2023-06-24T11:45:27;11.13;;;8.57;;
21758;SDS011;11041;50.854;20.580;2023-06-24T11:47:54;11.93;;;9.77;;
21758;SDS011;11041;50.854;20.580;2023-06-24T11:50:30;9.25;;;7.35;;
21758;SDS011;11041;50.854;20.580;2023-06-24T11:52:57;10.77;;;7.88;;
21758;SDS011;11041;50.854;20.580;2023-06-24T11:55:25;10.50;;;9.55;;
21758;SDS011;11041;50.854;20.580;2023-06-24T11:57:57;10.85;;;8.32;;
21758;SDS011;11041;50.854;20.580;2023-06-24T12:00:32;11.30;;;8.27;;
21758;SDS011;11041;50.854;20.580;2023-06-24T12:03:08;14.07;;;11.52;;
21758;SDS011;11041;50.854;20.580;2023-06-24T12:05:38;10.77;;;9.50;;
21758;SDS011;11041;50.854;20.580;2023-06-24T12:08:10;13.05;;;11.73;;
21758;SDS011;11041;50.854;20.580;2023-06-24T12:10:40;11.27;;;7.90;;
21758;SDS011;11041;50.854;20.580;2023-06-24T12:31:15;10.55;;;9.45;;
21758;SDS011;11041;50.854;20.580;2023-06-24T12:33:42;11.30;;;10.00;;
21758;SDS011;11041;50.854;20.580;2023-06-24T12:36:08;11.48;;;10.25;;
21758;SDS011;11041;50.854;20.580;2023-06-24T12:38:35;11.90;;;10.27;;
21758;SDS011;11041;50.854;20.580;2023-06-24T12:41:01;11.45;;;10.23;;
21758;SDS011;11041;50.854;20.580;2023-06-24T12:43:28;13.38;;;10.50;;
21758;SDS011;11041;50.854;20.580;2023-06-24T12:45:54;15.68;;;10.32;;
21758;SDS011;11041;50.854;20.580;2023-06-24T12:48:21;12.70;;;11.55;;
21758;SDS011;11041;50.854;20.580;2023-06-24T12:50:47;15.18;;;11.32;;
21758;SDS011;11041;50.854;20.580;2023-06-24T12:53:19;11.18;;;10.05;;
21758;SDS011;11041;50.854;20.580;2023-06-24T12:55:47;12.27;;;10.25;;
21758;SDS011;11041;50.854;20.580;2023-06-24T12:58:14;11.43;;;9.88;;
21758;SDS011;11041;50.854;20.580;2023-06-24T13:00:45;11.65;;;9.80;;
21758;SDS011;11041;50.854;20.580;2023-06-24T13:03:12;11.73;;;10.38;;
21758;SDS011;11041;50.854;20.580;2023-06-24T13:05:38;12.05;;;9.98;;
21758;SDS011;11041;50.854;20.580;2023-06-24T13:08:05;11.52;;;10.32;;
21758;SDS011;11041;50.854;20.580;2023-06-24T13:10:31;10.98;;;9.85;;
21758;SDS011;11041;50.854;20.580;2023-06-24T13:12:58;11.60;;;10.50;;
21758;SDS011;11041;50.854;20.580;2023-06-24T13:15:26;12.55;;;9.75;;
21758;SDS011;11041;50.854;20.580;2023-06-24T13:17:53;11.88;;;10.40;;
21758;SDS011;11041;50.854;20.580;2023-06-24T13:20:19;10.55;;;9.15;;
21758;SDS011;11041;50.854;20.580;2023-06-24T13:22:46;10.85;;;9.40;;
21758;SDS011;11041;50.854;20.580;2023-06-24T13:25:12;12.85;;;10.32;;
21758;SDS011;11041;50.854;20.580;2023-06-24T13:27:39;13.73;;;9.98;;
21758;SDS011;11041;50.854;20.580;2023-06-24T13:30:06;12.20;;;10.15;;
21758;SDS011;11041;50.854;20.580;2023-06-24T13:32:33;12.82;;;10.38;;
21758;SDS011;11041;50.854;20.580;2023-06-24T13:35:00;12.90;;;10.55;;
21758;SDS011;11041;50.854;20.580;2023-06-24T13:37:27;12.88;;;11.02;;
21758;SDS011;11041;50.854;20.580;2023-06-24T13:39:53;10.00;;;9.00;;
21758;SDS011;11041;50.854;20.580;2023-06-24T13:42:20;10.30;;;9.20;;
21758;SDS011;11041;50.854;20.580;2023-06-24T13:44:46;13.00;;;8.90;;
21758;SDS011;11041;50.854;20.580;2023-06-24T13:47:12;13.07;;;10.50;;
21758;SDS011;11041;50.854;20.580;2023-06-24T13:49:39;14.30;;;9.45;;
21758;SDS011;11041;50.854;20.580;2023-06-24T13:52:05;13.10;;;11.80;;
21758;SDS011;11041;50.854;20.580;2023-06-24T13:54:32;12.07;;;10.88;;
21758;SDS011;11041;50.854;20.580;2023-06-24T13:57:01;29.10;;;26.17;;
21758;SDS011;11041;50.854;20.580;2023-06-24T13:59:27;12.98;;;11.52;;
21758;SDS011;11041;50.854;20.580;2023-06-24T14:01:54;13.52;;;11.65;;
21758;SDS011;11041;50.854;20.580;2023-06-24T14:04:20;13.70;;;12.15;;
21758;SDS011;11041;50.854;20.580;2023-06-24T14:06:47;14.43;;;12.35;;
21758;SDS011;11041;50.854;20.580;2023-06-24T14:09:13;31.30;;;28.05;;
21758;SDS011;11041;50.854;20.580;2023-06-24T14:11:40;16.33;;;12.23;;
21758;SDS011;11041;50.854;20.580;2023-06-24T14:14:06;28.15;;;25.27;;
21758;SDS011;11041;50.854;20.580;2023-06-24T14:16:33;37.90;;;34.00;;
21758;SDS011;11041;50.854;20.580;2023-06-24T14:18:59;28.60;;;24.05;;
21758;SDS011;11041;50.854;20.580;2023-06-24T14:21:26;13.27;;;11.98;;
21758;SDS011;11041;50.854;20.580;2023-06-24T14:23:54;34.03;;;29.83;;
21758;SDS011;11041;50.854;20.580;2023-06-24T14:26:21;83.90;;;64.13;;
21758;SDS011;11041;50.854;20.580;2023-06-24T14:28:47;25.20;;;19.67;;
21758;SDS011;11041;50.854;20.580;2023-06-24T14:31:14;24.60;;;20.08;;
21758;SDS011;11041;50.854;20.580;2023-06-24T14:33:40;15.68;;;12.35;;
21758;SDS011;11041;50.854;20.580;2023-06-24T14:36:07;14.30;;;12.32;;
21758;SDS011;11041;50.854;20.580;2023-06-24T14:38:34;14.95;;;12.57;;
21758;SDS011;11041;50.854;20.580;2023-06-24T14:41:00;17.17;;;14.07;;
21758;SDS011;11041;50.854;20.580;2023-06-24T14:43:27;15.02;;;12.60;;
21758;SDS011;11041;50.854;20.580;2023-06-24T14:45:53;17.55;;;12.77;;
21758;SDS011;11041;50.854;20.580;2023-06-24T14:48:20;15.93;;;14.23;;
21758;SDS011;11041;50.854;20.580;2023-06-24T14:50:46;17.23;;;12.15;;
21758;SDS011;11041;50.854;20.580;2023-06-24T14:53:13;13.82;;;12.45;;
21758;SDS011;11041;50.854;20.580;2023-06-24T14:55:40;15.15;;;12.05;;